Time;durP1;ratioP1;P1;durP2;ratioP2;P2;SDS_P1;SDS_P2;PMS_P1;PMS_P2;Temp;Humidity;BMP_temperature;BMP_pressure;BME280_temperature;BME280_humidity;BME280_pressure;Samples;Min_cycle;Max_cycle;Signal;HPM_P1;HPM_P2
2023/10/28 00:00:52;;;;;;;6.15;3.80;;;10.10;99.90;;;;;;5066504;28;20447;-69
2023/10/28 00:03:20;;;;;;;7.20;3.80;;;10.10;99.90;;;;;;5073800;28;20478;-72
2023/10/28 00:05:47;;;;;;;5.55;3.78;;;10.20;99.90;;;;;;5068597;28;20443;-69
2023/10/28 00:08:14;;;;;;;6.10;4.20;;;10.10;99.90;;;;;;5063544;28;20473;-69
2023/10/28 00:10:42;;;;;;;5.55;3.67;;;10.20;99.90;;;;;;5069286;28;20439;-71
2023/10/28 00:13:09;;;;;;;7.22;4.53;;;10.20;99.90;;;;;;5072140;28;20489;-70
2023/10/28 00:15:36;;;;;;;8.75;4.22;;;10.20;99.90;;;;;;5069852;28;20428;-70
2023/10/28 00:18:03;;;;;;;6.18;4.13;;;10.20;99.90;;;;;;5064613;28;20442;-70
2023/10/28 00:20:30;;;;;;;5.45;3.90;;;10.20;99.90;;;;;;5067672;28;20814;-69
2023/10/28 00:22:57;;;;;;;5.53;3.53;;;10.20;99.90;;;;;;5061045;28;20939;-70
2023/10/28 00:25:25;;;;;;;5.68;3.80;;;10.20;99.90;;;;;;5069759;28;20448;-69
2023/10/28 00:27:55;;;;;;;5.50;3.30;;;10.20;99.90;;;;;;5056496;28;20503;-71
2023/10/28 00:30:22;;;;;;;6.32;4.10;;;10.20;99.90;;;;;;5068071;28;20434;-72
2023/10/28 00:32:49;;;;;;;4.53;3.70;;;10.20;99.90;;;;;;5064089;28;20446;-69
2023/10/28 00:35:16;;;;;;;6.32;3.97;;;10.20;99.90;;;;;;5070615;28;20425;-71
2023/10/28 00:37:44;;;;;;;6.00;4.18;;;10.20;99.90;;;;;;5064165;28;20431;-73
2023/10/28 00:40:13;;;;;;;8.88;4.20;;;10.20;99.90;;;;;;5063093;28;20514;-70
2023/10/28 00:42:41;;;;;;;7.20;4.30;;;10.20;99.90;;;;;;5061198;28;20451;-70
2023/10/28 00:45:11;;;;;;;6.10;4.38;;;10.10;99.90;;;;;;5063909;28;20419;-72
2023/10/28 00:47:39;;;;;;;8.40;4.90;;;10.20;99.90;;;;;;5065445;28;20450;-71
2023/10/28 00:50:10;;;;;;;8.77;5.13;;;10.20;99.90;;;;;;5063368;28;20455;-69
2023/10/28 00:52:37;;;;;;;9.50;5.00;;;10.20;99.90;;;;;;5063339;28;20432;-73
2023/10/28 00:55:04;;;;;;;6.95;4.78;;;10.20;99.90;;;;;;5060254;28;20432;-71
2023/10/28 00:57:33;;;;;;;6.80;4.80;;;10.20;99.90;;;;;;5063497;28;20432;-69
2023/10/28 01:00:01;;;;;;;6.40;4.63;;;10.20;99.90;;;;;;5069213;28;20435;-72
2023/10/28 01:02:29;;;;;;;8.32;5.10;;;10.20;99.90;;;;;;5062067;28;20453;-72
2023/10/28 01:04:56;;;;;;;9.45;5.35;;;10.20;99.90;;;;;;5063778;28;20423;-69
2023/10/28 01:07:22;;;;;;;7.22;4.90;;;10.20;99.90;;;;;;5071217;28;20427;-70
2023/10/28 01:09:49;;;;;;;7.50;5.30;;;10.20;99.90;;;;;;5062907;28;20564;-69
2023/10/28 01:12:16;;;;;;;6.70;5.28;;;10.20;99.90;;;;;;5062555;28;20428;-69
2023/10/28 01:14:43;;;;;;;7.28;5.28;;;10.20;99.90;;;;;;5063940;28;20477;-69
2023/10/28 01:17:13;;;;;;;7.50;5.20;;;10.20;99.90;;;;;;5065483;28;20435;-70
2023/10/28 01:19:41;;;;;;;8.25;5.03;;;10.20;99.90;;;;;;5071065;28;20890;-70
2023/10/28 01:22:09;;;;;;;7.90;5.18;;;10.20;99.90;;;;;;5064299;28;20439;-70
2023/10/28 01:24:36;;;;;;;5.73;4.60;;;10.20;99.90;;;;;;5063140;28;20408;-69
2023/10/28 01:27:03;;;;;;;7.00;5.38;;;10.20;99.90;;;;;;5064393;28;20434;-69
2023/10/28 01:29:32;;;;;;;6.47;5.00;;;10.20;99.90;;;;;;5063256;28;20435;-69
2023/10/28 01:31:59;;;;;;;9.40;5.60;;;10.20;99.90;;;;;;5062664;28;20439;-69
2023/10/28 01:34:27;;;;;;;8.75;5.20;;;10.20;99.90;;;;;;5063154;28;20415;-69
2023/10/28 01:36:56;;;;;;;7.55;5.55;;;10.20;99.90;;;;;;5063859;28;20681;-69
2023/10/28 01:39:24;;;;;;;7.00;5.05;;;10.20;99.90;;;;;;5061572;28;20446;-71
2023/10/28 01:41:50;;;;;;;8.13;5.55;;;10.20;99.90;;;;;;5060008;28;20499;-71
2023/10/28 01:44:17;;;;;;;9.25;5.65;;;10.20;99.90;;;;;;5062019;28;20527;-72
2023/10/28 01:46:43;;;;;;;8.10;5.70;;;10.20;99.90;;;;;;5063257;28;20484;-69
2023/10/28 01:49:10;;;;;;;8.10;6.55;;;10.10;99.90;;;;;;5063031;28;20431;-69
2023/10/28 01:51:37;;;;;;;9.07;5.70;;;10.20;99.90;;;;;;5062450;28;20527;-71
2023/10/28 01:54:04;;;;;;;6.70;5.20;;;10.10;99.90;;;;;;5062742;28;20515;-71
2023/10/28 01:56:32;;;;;;;9.15;5.35;;;10.20;99.90;;;;;;5064269;28;20509;-71
2023/10/28 01:58:59;;;;;;;7.57;5.03;;;10.20;99.90;;;;;;5062624;28;20435;-71
2023/10/28 02:01:26;;;;;;;7.53;5.60;;;10.20;99.90;;;;;;5063786;28;20739;-71
2023/10/28 02:03:53;;;;;;;6.60;5.40;;;10.20;99.90;;;;;;5062621;28;20563;-72
2023/10/28 02:06:20;;;;;;;6.35;4.38;;;10.20;99.90;;;;;;5064930;28;20771;-72
2023/10/28 02:08:48;;;;;;;5.90;4.57;;;10.20;99.90;;;;;;5062398;28;20427;-71
2023/10/28 02:11:14;;;;;;;7.25;4.88;;;10.20;99.90;;;;;;5066596;28;20868;-71
2023/10/28 02:13:42;;;;;;;5.78;4.30;;;10.20;99.90;;;;;;5061094;28;20431;-71
2023/10/28 02:16:09;;;;;;;5.47;4.60;;;10.20;99.90;;;;;;5061548;28;20431;-71
2023/10/28 02:18:36;;;;;;;5.63;4.00;;;10.20;99.90;;;;;;5060861;28;20909;-73
2023/10/28 02:21:04;;;;;;;6.82;4.30;;;10.20;99.90;;;;;;5054188;28;20441;-71
2023/10/28 02:23:30;;;;;;;5.40;4.20;;;10.20;99.90;;;;;;5067708;28;20489;-71
2023/10/28 02:25:57;;;;;;;5.22;4.30;;;10.20;99.90;;;;;;5063322;28;20550;-68
2023/10/28 02:28:24;;;;;;;6.00;3.97;;;10.20;99.90;;;;;;5064993;28;20450;-68
2023/10/28 02:30:52;;;;;;;6.50;4.10;;;10.20;99.90;;;;;;5069784;28;20454;-71
2023/10/28 02:33:18;;;;;;;6.50;4.18;;;10.20;99.90;;;;;;5074437;28;20411;-70
2023/10/28 02:35:46;;;;;;;7.20;4.30;;;10.20;99.90;;;;;;5066493;28;20431;-71
2023/10/28 02:38:12;;;;;;;4.72;3.95;;;10.20;99.90;;;;;;5064528;28;20439;-71
2023/10/28 02:40:45;;;;;;;6.00;4.15;;;10.20;99.90;;;;;;5067234;28;20885;-70
2023/10/28 02:43:11;;;;;;;5.30;3.50;;;10.20;99.90;;;;;;5067799;28;20914;-71
2023/10/28 02:45:38;;;;;;;6.03;3.37;;;10.20;99.90;;;;;;5068333;28;20526;-71
2023/10/28 02:48:06;;;;;;;3.50;3.00;;;10.20;99.90;;;;;;5064810;28;20453;-72
2023/10/28 02:50:36;;;;;;;5.60;3.42;;;10.20;99.90;;;;;;5067257;28;20476;-71
2023/10/28 02:53:03;;;;;;;4.78;3.10;;;10.10;99.90;;;;;;5064118;28;20427;-71
2023/10/28 02:55:30;;;;;;;3.50;2.80;;;10.10;99.90;;;;;;5065421;28;20897;-72
2023/10/28 02:57:56;;;;;;;4.25;2.75;;;10.10;99.90;;;;;;5066022;28;20446;-71
2023/10/28 03:00:23;;;;;;;3.03;2.35;;;10.10;99.90;;;;;;5068086;28;20428;-71
2023/10/28 03:02:52;;;;;;;4.05;2.80;;;10.10;99.90;;;;;;5064761;28;20427;-71
2023/10/28 03:05:22;;;;;;;4.32;2.70;;;10.10;99.90;;;;;;5066053;28;20431;-71
2023/10/28 03:07:49;;;;;;;3.53;2.33;;;10.10;99.90;;;;;;5065469;28;20427;-71
2023/10/28 03:10:16;;;;;;;3.40;2.40;;;10.00;99.90;;;;;;5067754;28;20854;-70
2023/10/28 03:12:42;;;;;;;3.60;2.30;;;10.00;99.90;;;;;;5073154;28;20458;-72
2023/10/28 03:15:10;;;;;;;2.73;2.30;;;10.00;99.90;;;;;;5066024;28;20508;-71
2023/10/28 03:17:38;;;;;;;3.50;1.90;;;10.00;99.90;;;;;;5062861;28;20443;-70
2023/10/28 03:20:08;;;;;;;3.40;2.30;;;10.00;99.90;;;;;;5072196;28;20427;-70
2023/10/28 03:22:36;;;;;;;3.70;2.10;;;10.00;99.90;;;;;;5067151;28;20501;-71
2023/10/28 03:25:04;;;;;;;3.28;2.08;;;10.00;99.90;;;;;;5067090;28;20503;-71
2023/10/28 03:27:32;;;;;;;3.83;2.10;;;10.00;99.90;;;;;;5070765;28;21005;-72
2023/10/28 03:29:59;;;;;;;2.20;1.77;;;10.00;99.90;;;;;;5065965;28;20431;-71
2023/10/28 03:32:26;;;;;;;3.80;2.20;;;10.00;99.90;;;;;;5068712;28;20493;-72
2023/10/28 03:34:52;;;;;;;3.80;2.60;;;10.00;99.90;;;;;;5066794;28;20931;-72
2023/10/28 03:37:19;;;;;;;2.60;1.87;;;9.90;99.90;;;;;;5066245;28;20428;-71
2023/10/28 03:39:47;;;;;;;3.10;2.00;;;9.90;99.90;;;;;;5066207;28;20436;-69
2023/10/28 03:42:14;;;;;;;4.32;2.30;;;9.90;99.90;;;;;;5061571;28;20412;-69
2023/10/28 03:44:41;;;;;;;3.50;1.90;;;9.90;99.90;;;;;;5063510;28;20435;-69
2023/10/28 03:47:08;;;;;;;2.50;2.17;;;9.90;99.90;;;;;;5064640;28;20598;-69
2023/10/28 03:49:34;;;;;;;3.78;2.00;;;9.90;99.90;;;;;;5068878;28;20438;-70
2023/10/28 03:52:01;;;;;;;3.72;1.90;;;9.90;99.90;;;;;;5071414;28;20539;-69
2023/10/28 03:54:29;;;;;;;3.25;1.70;;;9.90;99.90;;;;;;5072336;28;20431;-69
2023/10/28 03:56:57;;;;;;;2.80;1.70;;;9.80;99.90;;;;;;5066158;28;20450;-69
2023/10/28 03:59:23;;;;;;;2.25;1.70;;;9.80;99.90;;;;;;5063737;28;20432;-68
2023/10/28 04:01:50;;;;;;;3.38;1.80;;;9.70;99.90;;;;;;5065556;28;20440;-69
2023/10/28 04:04:17;;;;;;;2.65;2.03;;;9.70;99.90;;;;;;5067683;28;20432;-71
2023/10/28 04:06:43;;;;;;;3.70;2.10;;;9.70;99.90;;;;;;5063093;28;20439;-71
2023/10/28 04:09:13;;;;;;;2.97;1.88;;;9.70;99.90;;;;;;5067266;28;20923;-72
2023/10/28 04:11:40;;;;;;;3.40;1.77;;;9.70;99.90;;;;;;5067683;28;20907;-71
2023/10/28 04:14:08;;;;;;;3.70;2.20;;;9.60;99.90;;;;;;5064611;28;20447;-71
2023/10/28 04:16:35;;;;;;;2.80;2.45;;;9.60;99.90;;;;;;5065862;28;20435;-68
2023/10/28 04:19:02;;;;;;;2.70;1.90;;;9.50;99.90;;;;;;5066258;28;20768;-68
2023/10/28 04:21:29;;;;;;;2.60;1.85;;;9.60;99.90;;;;;;5067293;28;20427;-71
2023/10/28 04:23:55;;;;;;;3.60;1.77;;;9.50;99.90;;;;;;5062940;28;20908;-71
2023/10/28 04:26:22;;;;;;;2.83;1.90;;;9.50;99.90;;;;;;5064507;28;20446;-71
2023/10/28 04:28:49;;;;;;;2.33;1.60;;;9.50;99.90;;;;;;5065082;28;20882;-71
2023/10/28 04:31:17;;;;;;;2.97;1.60;;;9.50;99.90;;;;;;5064580;28;20435;-72
2023/10/28 04:33:44;;;;;;;2.63;1.65;;;9.50;99.90;;;;;;5065056;28;20442;-69
2023/10/28 04:36:11;;;;;;;1.80;1.40;;;9.50;99.90;;;;;;5063362;28;20458;-73
2023/10/28 04:38:40;;;;;;;2.40;1.40;;;9.50;99.90;;;;;;5064998;28;20595;-71
2023/10/28 04:41:08;;;;;;;3.40;1.70;;;9.50;99.90;;;;;;5065309;28;20515;-71
2023/10/28 04:43:34;;;;;;;2.42;1.80;;;9.60;99.90;;;;;;5064482;28;20649;-73
2023/10/28 04:46:01;;;;;;;2.30;2.00;;;9.60;99.90;;;;;;5063415;28;20447;-71
2023/10/28 04:48:29;;;;;;;3.42;2.30;;;9.60;99.90;;;;;;5072792;28;21256;-71
2023/10/28 04:50:56;;;;;;;3.17;2.20;;;9.70;99.90;;;;;;5058400;28;20432;-73
2023/10/28 04:53:23;;;;;;;2.78;2.17;;;9.70;99.90;;;;;;5062379;28;20499;-71
2023/10/28 04:55:50;;;;;;;2.55;1.90;;;9.70;99.90;;;;;;5066814;28;20435;-71
2023/10/28 04:58:17;;;;;;;3.65;2.90;;;9.70;99.90;;;;;;5070181;28;20896;-71
2023/10/28 05:00:45;;;;;;;3.67;2.20;;;9.70;99.90;;;;;;5066386;28;20434;-71
2023/10/28 05:03:12;;;;;;;3.40;2.53;;;9.80;99.90;;;;;;5061950;28;20534;-72
2023/10/28 05:05:40;;;;;;;3.03;2.10;;;9.80;99.90;;;;;;5063511;28;20510;-71
2023/10/28 05:08:08;;;;;;;3.03;2.08;;;9.80;99.90;;;;;;5064028;28;20519;-71
2023/10/28 05:10:35;;;;;;;2.70;2.10;;;9.70;99.90;;;;;;5064031;28;20435;-71
2023/10/28 05:13:03;;;;;;;2.72;1.70;;;9.80;99.90;;;;;;5062945;28;20439;-71
2023/10/28 05:15:29;;;;;;;2.60;1.75;;;9.80;99.90;;;;;;5064272;28;20533;-71
2023/10/28 05:17:56;;;;;;;3.28;1.63;;;9.80;99.90;;;;;;5066416;28;20885;-71
2023/10/28 05:20:23;;;;;;;3.42;1.70;;;9.70;99.90;;;;;;5064850;28;20431;-71
2023/10/28 05:22:51;;;;;;;2.72;1.55;;;9.70;99.90;;;;;;5063894;28;20422;-71
2023/10/28 05:25:18;;;;;;;1.98;1.33;;;9.70;99.90;;;;;;5065892;28;20472;-70
2023/10/28 05:27:45;;;;;;;2.47;1.50;;;9.70;99.90;;;;;;5067401;28;20774;-71
2023/10/28 05:30:13;;;;;;;1.98;1.40;;;9.70;99.90;;;;;;5072277;28;20403;-71
2023/10/28 05:32:41;;;;;;;2.00;1.10;;;9.70;99.90;;;;;;5059448;28;20446;-73
2023/10/28 05:35:10;;;;;;;6.40;1.50;;;9.70;99.90;;;;;;5065524;28;20780;-72
2023/10/28 05:37:37;;;;;;;2.67;1.60;;;9.70;99.90;;;;;;5072596;28;20477;-71
2023/10/28 05:40:10;;;;;;;1.60;1.30;;;9.70;99.90;;;;;;5065153;28;20443;-70
2023/10/28 05:42:36;;;;;;;2.00;1.30;;;9.70;99.90;;;;;;5076683;22;20435;-67
2023/10/28 05:45:03;;;;;;;2.15;1.17;;;9.70;99.90;;;;;;5053920;28;20428;-68
2023/10/28 05:47:30;;;;;;;2.58;1.20;;;9.70;99.90;;;;;;5066986;28;20437;-68
2023/10/28 05:49:57;;;;;;;5.07;1.30;;;9.70;99.90;;;;;;5067683;28;20432;-68
2023/10/28 05:52:24;;;;;;;1.80;1.30;;;9.70;99.90;;;;;;5078319;28;20426;-67
2023/10/28 05:54:50;;;;;;;2.50;1.30;;;9.70;99.90;;;;;;5076291;28;20415;-69
2023/10/28 05:57:18;;;;;;;2.30;1.20;;;9.70;99.90;;;;;;5085452;28;20422;-68
2023/10/28 05:59:45;;;;;;;2.10;1.20;;;9.70;99.90;;;;;;5087646;28;20438;-68
2023/10/28 06:02:13;;;;;;;3.13;1.40;;;9.70;99.90;;;;;;5080898;28;20931;-67
2023/10/28 06:04:41;;;;;;;2.60;1.30;;;9.70;99.90;;;;;;5082224;28;20510;-68
2023/10/28 06:07:09;;;;;;;2.85;1.40;;;9.70;99.90;;;;;;5086483;28;20429;-68
2023/10/28 06:09:36;;;;;;;1.65;1.30;;;9.70;99.90;;;;;;5086239;28;20472;-67
2023/10/28 06:12:03;;;;;;;2.60;1.50;;;9.70;99.90;;;;;;5088299;28;20417;-65
2023/10/28 06:14:31;;;;;;;3.13;1.40;;;9.70;99.90;;;;;;5086304;28;20840;-68
2023/10/28 06:16:58;;;;;;;2.67;1.60;;;9.60;99.90;;;;;;5079112;28;20433;-67
2023/10/28 06:19:24;;;;;;;3.08;1.60;;;9.60;99.90;;;;;;5085844;28;20934;-67
2023/10/28 06:21:52;;;;;;;3.15;1.60;;;9.60;99.90;;;;;;5087777;28;20410;-67
2023/10/28 06:24:19;;;;;;;1.90;1.50;;;9.60;99.90;;;;;;5082907;28;20410;-68
2023/10/28 06:26:46;;;;;;;3.13;1.90;;;9.70;99.90;;;;;;5077509;28;20423;-68
2023/10/28 06:29:13;;;;;;;3.58;1.70;;;9.70;99.90;;;;;;5083210;28;20433;-67
2023/10/28 06:31:43;;;;;;;2.15;1.10;;;9.70;99.90;;;;;;5084019;28;20434;-68
2023/10/28 06:34:10;;;;;;;2.90;1.77;;;9.70;99.90;;;;;;5081070;28;21125;-68
2023/10/28 06:36:37;;;;;;;3.00;1.70;;;9.70;99.90;;;;;;5084962;28;20406;-69
2023/10/28 06:39:04;;;;;;;3.20;1.70;;;9.70;99.90;;;;;;5086686;28;20453;-67
2023/10/28 06:41:31;;;;;;;2.60;1.60;;;9.70;99.90;;;;;;5087092;28;20428;-68
2023/10/28 06:44:02;;;;;;;1.92;1.55;;;9.80;99.90;;;;;;5074317;28;20431;-68
2023/10/28 06:46:29;;;;;;;2.20;1.50;;;9.80;99.90;;;;;;5074541;28;20418;-68
2023/10/28 06:48:57;;;;;;;3.53;1.98;;;9.80;99.90;;;;;;5076736;28;20422;-68
2023/10/28 06:51:24;;;;;;;3.10;1.98;;;9.80;99.90;;;;;;5081537;28;20426;-68
2023/10/28 06:53:51;;;;;;;3.03;2.00;;;9.90;99.90;;;;;;5085703;28;20433;-65
2023/10/28 06:56:17;;;;;;;3.30;1.80;;;9.90;99.90;;;;;;5083840;28;20791;-68
2023/10/28 06:58:44;;;;;;;3.15;2.00;;;9.90;99.90;;;;;;5088186;28;20432;-69
2023/10/28 07:01:11;;;;;;;3.47;1.90;;;9.90;99.90;;;;;;5085910;28;20425;-66
2023/10/28 07:03:40;;;;;;;3.50;1.70;;;9.90;99.90;;;;;;5082196;28;22569;-68
2023/10/28 07:06:09;;;;;;;2.45;1.60;;;9.90;99.90;;;;;;5084798;28;20465;-68
2023/10/28 07:08:36;;;;;;;2.90;2.20;;;10.00;99.90;;;;;;5087987;28;20922;-67
2023/10/28 07:11:03;;;;;;;1.85;1.35;;;10.00;99.90;;;;;;5087451;28;20410;-68
2023/10/28 07:13:30;;;;;;;3.00;1.70;;;10.00;99.90;;;;;;5089100;28;20413;-69
2023/10/28 07:16:03;;;;;;;1.77;1.50;;;10.10;99.90;;;;;;5091484;28;20430;-67
2023/10/28 07:18:29;;;;;;;2.33;1.40;;;10.10;99.90;;;;;;5087456;28;20422;-67
2023/10/28 07:20:56;;;;;;;2.75;1.60;;;10.10;99.90;;;;;;5090906;28;20422;-68
2023/10/28 07:23:26;;;;;;;2.50;1.50;;;10.10;99.90;;;;;;5090998;28;20458;-66
2023/10/28 07:25:53;;;;;;;2.67;1.50;;;10.10;99.90;;;;;;5090958;28;20876;-67
2023/10/28 07:28:20;;;;;;;3.17;1.20;;;10.20;99.90;;;;;;5090815;28;20413;-66
2023/10/28 07:30:48;;;;;;;4.70;3.50;;;10.20;99.90;;;;;;5083206;28;20437;-67
2023/10/28 07:33:15;;;;;;;3.50;1.70;;;10.20;99.90;;;;;;5090711;28;20433;-67
2023/10/28 07:35:44;;;;;;;1.70;1.30;;;10.20;99.90;;;;;;5090360;28;20775;-69
2023/10/28 07:38:12;;;;;;;1.70;1.27;;;10.20;99.90;;;;;;5088095;28;20422;-68
2023/10/28 07:40:41;;;;;;;2.88;1.38;;;10.10;99.90;;;;;;5087446;28;20441;-68
2023/10/28 07:43:08;;;;;;;3.78;1.77;;;10.10;99.90;;;;;;5083406;28;20425;-68
2023/10/28 07:45:35;;;;;;;3.00;1.95;;;10.00;99.90;;;;;;5089587;28;20969;-67
2023/10/28 07:48:01;;;;;;;1.90;1.60;;;10.00;99.90;;;;;;5082928;28;20418;-67
2023/10/28 07:50:28;;;;;;;3.78;2.10;;;10.00;99.90;;;;;;5088449;28;20430;-66
2023/10/28 07:52:55;;;;;;;3.33;1.90;;;10.00;99.90;;;;;;5084639;28;20429;-67
2023/10/28 07:55:22;;;;;;;2.47;2.03;;;9.90;99.90;;;;;;5088787;28;20494;-66
2023/10/28 07:57:50;;;;;;;2.67;2.10;;;10.00;99.90;;;;;;5090595;28;20650;-67
2023/10/28 08:00:17;;;;;;;3.40;2.10;;;10.00;99.90;;;;;;5090912;28;20891;-69
2023/10/28 08:02:45;;;;;;;2.10;1.88;;;10.00;99.90;;;;;;5090271;28;20432;-68
2023/10/28 08:05:12;;;;;;;4.00;1.80;;;10.00;99.90;;;;;;5082907;28;20935;-67
2023/10/28 08:07:40;;;;;;;2.30;2.10;;;10.00;99.90;;;;;;5087683;28;20431;-67
2023/10/28 08:10:08;;;;;;;2.80;2.08;;;10.00;99.90;;;;;;5090516;28;20489;-68
2023/10/28 08:12:35;;;;;;;2.42;2.00;;;10.00;99.90;;;;;;5089866;28;20402;-67
2023/10/28 08:15:07;;;;;;;3.70;2.40;;;10.10;99.90;;;;;;5089324;28;20425;-68
2023/10/28 08:17:34;;;;;;;2.80;2.10;;;10.10;99.90;;;;;;5088111;28;20478;-66
2023/10/28 08:20:01;;;;;;;2.90;2.10;;;10.10;99.90;;;;;;5086680;28;20543;-68
2023/10/28 08:22:28;;;;;;;2.60;2.00;;;10.10;99.90;;;;;;5089719;28;20425;-69
2023/10/28 08:24:55;;;;;;;2.80;1.80;;;10.10;99.90;;;;;;5089448;28;20853;-68
2023/10/28 08:27:22;;;;;;;2.72;2.00;;;10.20;99.90;;;;;;5088571;28;20414;-69
2023/10/28 08:29:49;;;;;;;3.30;2.33;;;10.20;99.90;;;;;;5089709;28;20406;-69
2023/10/28 08:32:18;;;;;;;3.75;1.92;;;10.20;99.90;;;;;;5089444;28;20495;-69
2023/10/28 08:34:45;;;;;;;2.78;1.70;;;10.30;99.90;;;;;;5086381;28;20499;-68
2023/10/28 08:37:13;;;;;;;2.40;2.10;;;10.30;99.90;;;;;;5083137;28;20498;-69
2023/10/28 08:39:41;;;;;;;3.50;2.30;;;10.30;99.90;;;;;;5089666;28;20402;-69
2023/10/28 08:42:08;;;;;;;3.22;2.10;;;10.30;99.90;;;;;;5083664;28;20465;-68
2023/10/28 08:44:35;;;;;;;2.35;1.90;;;10.40;99.90;;;;;;5086297;28;20413;-68
2023/10/28 08:47:06;;;;;;;2.92;2.20;;;10.40;99.90;;;;;;5080724;28;20410;-68
2023/10/28 08:49:38;;;;;;;5.17;1.90;;;10.40;99.90;;;;;;5086173;28;20420;-69
2023/10/28 08:52:07;;;;;;;3.35;2.25;;;10.40;99.90;;;;;;5077758;28;20436;-69
2023/10/28 08:54:35;;;;;;;3.72;2.50;;;10.50;99.90;;;;;;5085953;28;20409;-69
2023/10/28 08:57:05;;;;;;;3.35;2.20;;;10.50;99.90;;;;;;5081234;28;20414;-67
2023/10/28 08:59:32;;;;;;;4.00;2.15;;;10.50;99.90;;;;;;5089325;28;20433;-68
2023/10/28 09:02:00;;;;;;;3.70;2.30;;;10.50;99.90;;;;;;5085981;28;20434;-66
2023/10/28 09:04:27;;;;;;;4.00;2.10;;;10.60;99.90;;;;;;5084217;28;20453;-67
2023/10/28 09:06:58;;;;;;;3.10;2.25;;;10.60;99.90;;;;;;5077826;28;20429;-68
2023/10/28 09:09:28;;;;;;;3.05;2.60;;;10.60;99.90;;;;;;5089312;28;20483;-66
2023/10/28 09:11:57;;;;;;;2.83;2.30;;;10.60;99.90;;;;;;5079957;28;20408;-67
2023/10/28 09:14:23;;;;;;;5.28;2.42;;;10.70;99.90;;;;;;5087072;28;20418;-67
2023/10/28 09:16:50;;;;;;;3.10;2.33;;;10.70;99.90;;;;;;5080494;28;20437;-67
2023/10/28 09:19:21;;;;;;;3.42;2.40;;;10.80;99.90;;;;;;5086300;28;20433;-66
2023/10/28 09:21:48;;;;;;;4.15;2.63;;;10.80;99.90;;;;;;5087204;28;20412;-67
2023/10/28 09:24:16;;;;;;;3.35;2.60;;;10.90;99.90;;;;;;5085689;28;20506;-67
2023/10/28 09:26:43;;;;;;;4.68;2.60;;;10.90;99.90;;;;;;5089480;28;20417;-66
2023/10/28 09:29:10;;;;;;;4.63;2.50;;;11.00;99.90;;;;;;5081554;28;20426;-66
2023/10/28 09:31:38;;;;;;;4.00;2.45;;;11.00;99.90;;;;;;5088518;28;20410;-65
2023/10/28 09:34:05;;;;;;;3.85;2.80;;;11.00;99.90;;;;;;5089290;28;20774;-67
2023/10/28 09:36:33;;;;;;;4.50;2.55;;;11.10;99.90;;;;;;5082531;28;20426;-67
2023/10/28 09:39:01;;;;;;;4.70;2.40;;;11.30;99.90;;;;;;5088036;28;20504;-69
2023/10/28 09:41:30;;;;;;;2.70;2.20;;;11.40;99.90;;;;;;5085749;28;20426;-66
2023/10/28 09:43:58;;;;;;;3.25;2.30;;;11.40;99.90;;;;;;5088749;28;20418;-66
2023/10/28 09:46:31;;;;;;;3.80;2.33;;;11.50;99.90;;;;;;5086162;28;20526;-67
2023/10/28 09:49:03;;;;;;;4.97;3.17;;;11.50;99.90;;;;;;5088786;28;20410;-66
2023/10/28 09:51:31;;;;;;;4.78;3.60;;;11.60;99.90;;;;;;5085521;28;20519;-66
2023/10/28 09:54:00;;;;;;;3.53;2.40;;;11.70;99.90;;;;;;5081031;28;20438;-67
2023/10/28 09:56:34;;;;;;;3.50;2.17;;;11.80;99.90;;;;;;5085016;28;20406;-66
2023/10/28 09:59:07;;;;;;;2.70;2.00;;;12.00;99.90;;;;;;5088633;28;20429;-66
2023/10/28 10:01:40;;;;;;;4.30;2.50;;;12.10;99.90;;;;;;5088195;28;20463;-67
2023/10/28 10:04:24;;;;;;;2.78;1.90;;;12.30;99.90;;;;;;5080653;28;20420;-67
2023/10/28 10:06:51;;;;;;;3.40;1.90;;;12.40;99.90;;;;;;5080255;28;20427;-67
2023/10/28 10:09:19;;;;;;;4.07;2.00;;;12.40;99.90;;;;;;5080407;28;20498;-67
2023/10/28 10:11:50;;;;;;;2.87;2.00;;;12.50;99.90;;;;;;5088501;28;20417;-66
2023/10/28 10:14:21;;;;;;;2.60;2.00;;;12.60;99.90;;;;;;5089359;28;20402;-67
2023/10/28 10:16:53;;;;;;;2.90;1.80;;;12.80;99.90;;;;;;5087748;28;20449;-67
2023/10/28 10:19:24;;;;;;;5.10;2.30;;;12.90;99.90;;;;;;5093506;28;20425;-66
2023/10/28 10:21:52;;;;;;;2.90;2.10;;;13.00;99.90;;;;;;5097764;28;20406;-67
2023/10/28 10:24:20;;;;;;;3.40;1.50;;;13.10;99.90;;;;;;5096666;28;20484;-67
2023/10/28 10:26:56;;;;;;;2.45;1.50;;;13.20;99.90;;;;;;5089605;28;20406;-68
2023/10/28 10:29:23;;;;;;;3.17;1.00;;;13.40;99.90;;;;;;5088825;28;20429;-66
2023/10/28 10:31:52;;;;;;;3.00;1.60;;;13.70;99.90;;;;;;5089905;28;20425;-66
2023/10/28 10:34:32;;;;;;;2.85;0.90;;;13.90;99.90;;;;;;5088318;28;20430;-66
2023/10/28 10:36:59;;;;;;;2.22;1.17;;;14.20;99.90;;;;;;5086531;28;20410;-66
2023/10/28 10:39:26;;;;;;;2.40;0.95;;;14.30;99.90;;;;;;5083369;28;20426;-67
2023/10/28 10:41:56;;;;;;;2.50;1.10;;;14.30;99.90;;;;;;5088367;28;20441;-66
2023/10/28 10:44:33;;;;;;;2.67;1.20;;;14.20;99.90;;;;;;5088288;28;20429;-67
2023/10/28 10:47:01;;;;;;;3.40;1.20;;;14.10;99.90;;;;;;5087543;28;20414;-66
2023/10/28 10:49:30;;;;;;;2.97;1.00;;;13.90;99.90;;;;;;5086745;28;20483;-68
2023/10/28 10:51:57;;;;;;;3.97;1.40;;;13.90;99.90;;;;;;5090962;28;20413;-66
2023/10/28 10:54:30;;;;;;;3.90;1.30;;;13.80;99.90;;;;;;5090847;28;20842;-66
2023/10/28 10:56:58;;;;;;;3.63;1.35;;;13.70;99.90;;;;;;5085774;28;20431;-67
2023/10/28 10:59:25;;;;;;;2.92;1.40;;;13.70;99.90;;;;;;5090653;28;20912;-66
2023/10/28 11:01:52;;;;;;;2.60;1.10;;;13.70;99.90;;;;;;5092315;28;20417;-66
2023/10/28 11:04:19;;;;;;;3.53;1.50;;;13.70;99.90;;;;;;5090613;28;20448;-65
2023/10/28 11:06:46;;;;;;;4.07;1.42;;;13.70;99.90;;;;;;5086871;28;20412;-66
2023/10/28 11:09:15;;;;;;;4.50;1.60;;;13.70;99.90;;;;;;5083198;28;20438;-67
2023/10/28 11:11:42;;;;;;;4.35;1.40;;;13.70;99.90;;;;;;5091415;28;20787;-65
2023/10/28 11:14:12;;;;;;;3.55;1.40;;;13.70;99.90;;;;;;5089793;28;20429;-66
2023/10/28 11:16:39;;;;;;;4.88;1.70;;;13.70;99.90;;;;;;5091951;28;20429;-65
2023/10/28 11:19:07;;;;;;;4.07;1.83;;;13.80;99.90;;;;;;5090194;28;20490;-66
2023/10/28 11:21:34;;;;;;;4.00;1.60;;;13.90;99.90;;;;;;5090885;28;20437;-66
2023/10/28 11:24:01;;;;;;;3.50;1.60;;;14.00;99.90;;;;;;5091717;28;20429;-66
2023/10/28 11:26:28;;;;;;;4.13;1.45;;;14.10;99.90;;;;;;5082165;28;20428;-66
2023/10/28 11:28:59;;;;;;;5.45;1.58;;;14.20;99.90;;;;;;5085528;28;20754;-67
2023/10/28 11:31:29;;;;;;;3.50;1.33;;;14.30;99.90;;;;;;5085770;28;20406;-67
2023/10/28 11:33:57;;;;;;;5.43;1.50;;;14.40;99.90;;;;;;5089798;28;20432;-67
2023/10/28 11:36:24;;;;;;;3.75;1.40;;;14.40;99.40;;;;;;5089960;28;20764;-66
2023/10/28 11:38:51;;;;;;;4.40;1.70;;;14.30;98.10;;;;;;5087455;28;20466;-65
2023/10/28 11:41:18;;;;;;;4.00;1.50;;;14.30;99.90;;;;;;5088758;28;20417;-67
2023/10/28 11:43:48;;;;;;;3.90;1.13;;;14.30;99.90;;;;;;5084792;28;20796;-67
2023/10/28 11:46:16;;;;;;;4.30;1.55;;;14.30;98.70;;;;;;5090845;28;20669;-67
2023/10/28 11:48:45;;;;;;;4.47;1.60;;;14.30;99.30;;;;;;5087380;28;20428;-66
2023/10/28 11:51:12;;;;;;;4.20;1.60;;;14.50;99.80;;;;;;5084976;28;20405;-68
2023/10/28 11:53:47;;;;;;;3.28;1.30;;;14.60;98.60;;;;;;5088244;28;20438;-65
2023/10/28 11:56:15;;;;;;;2.90;1.50;;;14.60;97.60;;;;;;5091623;28;20425;-67
2023/10/28 11:58:42;;;;;;;3.53;1.30;;;14.70;98.70;;;;;;5085025;28;20773;-66
2023/10/28 12:01:09;;;;;;;4.60;1.80;;;14.70;97.90;;;;;;5091770;28;20509;-67
2023/10/28 12:03:36;;;;;;;4.15;1.63;;;14.60;98.50;;;;;;5091802;28;20888;-68
2023/10/28 12:06:05;;;;;;;4.70;1.90;;;14.70;98.70;;;;;;5089735;28;20426;-69
2023/10/28 12:08:31;;;;;;;5.10;1.70;;;14.90;98.60;;;;;;5090306;28;20414;-66
2023/10/28 12:10:58;;;;;;;4.20;1.40;;;15.00;98.30;;;;;;5085501;28;20928;-67
2023/10/28 12:13:27;;;;;;;2.70;1.25;;;15.10;97.50;;;;;;5109619;22;20433;-65
2023/10/28 12:15:54;;;;;;;2.40;1.20;;;15.10;95.70;;;;;;5101658;28;20420;-65
2023/10/28 12:18:21;;;;;;;3.83;1.00;;;15.00;95.80;;;;;;5080517;28;20783;-65
2023/10/28 12:20:48;;;;;;;2.80;1.10;;;14.90;95.60;;;;;;5088391;28;20431;-65
2023/10/28 12:23:16;;;;;;;5.28;1.40;;;14.80;95.50;;;;;;5096846;28;20431;-65
2023/10/28 12:25:43;;;;;;;3.42;1.20;;;14.70;95.40;;;;;;5097928;28;20455;-65
2023/10/28 12:28:10;;;;;;;2.58;0.98;;;14.60;95.80;;;;;;5105678;28;20536;-65
2023/10/28 12:30:37;;;;;;;2.63;1.13;;;14.60;95.60;;;;;;5097549;28;20448;-65
2023/10/28 12:33:04;;;;;;;3.00;1.50;;;14.60;96.30;;;;;;5087604;28;20444;-65
2023/10/28 12:35:30;;;;;;;5.13;1.50;;;14.70;96.70;;;;;;5088370;28;20481;-65
2023/10/28 12:37:57;;;;;;;3.80;1.30;;;14.90;95.40;;;;;;5099597;28;20406;-66
2023/10/28 12:40:26;;;;;;;3.20;1.30;;;15.00;95.70;;;;;;5097467;28;20808;-66
2023/10/28 12:42:53;;;;;;;3.20;1.10;;;15.00;94.80;;;;;;5098457;28;20899;-66
2023/10/28 12:45:20;;;;;;;4.15;1.55;;;15.00;93.90;;;;;;5100825;28;20540;-66
2023/10/28 12:47:48;;;;;;;3.58;1.20;;;15.10;94.70;;;;;;5097923;28;20433;-65
2023/10/28 12:50:17;;;;;;;3.00;1.10;;;15.10;93.80;;;;;;5085479;28;20430;-66
2023/10/28 12:52:43;;;;;;;1.80;1.10;;;15.10;93.50;;;;;;5087734;28;20903;-65